Time;durP1;ratioP1;P1;durP2;ratioP2;P2;SDS_P1;SDS_P2;PMS_P1;PMS_P2;Temp;Humidity;BMP_temperature;BMP_pressure;BME280_temperature;BME280_humidity;BME280_pressure;Samples;Min_cycle;Max_cycle;Signal;HPM_P1;HPM_P2
2023/12/07 00:00:02;;;;;;;;;;;;;;;17.37;48.57;100440.88;4988627;28;1902;-50
2023/12/07 00:02:30;;;;;;;;;;;;;;;16.69;48.68;100439.66;4991540;28;1139;-51
2023/12/07 00:04:55;;;;;;;;;;;;;;;16.44;47.97;100440.59;4989488;28;1123;-47
2023/12/07 00:07:21;;;;;;;;;;;;;;;17.16;48.68;100428.41;4978634;28;1061;-49
2023/12/07 00:09:46;;;;;;;;;;;;;;;16.58;48.16;100440.81;4988814;28;1188;-49
2023/12/07 00:12:12;;;;;;;;;;;;;;;16.53;48.15;100449.06;4990734;28;1030;-45
2023/12/07 00:14:37;;;;;;;;;;;;;;;17.13;48.61;100450.97;4984865;28;1155;-49
2023/12/07 00:17:03;;;;;;;;;;;;;;;16.62;47.89;100449.28;4989556;28;1029;-50
2023/12/07 00:19:29;;;;;;;;;;;;;;;16.40;47.07;100447.75;4989016;28;1906;-47
2023/12/07 00:21:55;;;;;;;;;;;;;;;17.20;48.18;100454.22;4978065;28;1040;-50
2023/12/07 00:24:20;;;;;;;;;;;;;;;16.58;48.22;100455.34;4996502;28;1128;-48
2023/12/07 00:26:46;;;;;;;;;;;;;;;16.45;47.51;100452.38;4983238;28;1148;-50
2023/12/07 00:29:11;;;;;;;;;;;;;;;16.79;48.31;100451.66;4996181;28;905;-47
2023/12/07 00:31:37;;;;;;;;;;;;;;;16.86;48.49;100463.19;4982697;28;973;-49
2023/12/07 00:34:03;;;;;;;;;;;;;;;16.41;47.88;100461.19;4984318;28;1005;-48
2023/12/07 00:36:28;;;;;;;;;;;;;;;16.29;47.39;100463.41;4983122;28;1147;-50
2023/12/07 00:38:54;;;;;;;;;;;;;;;17.38;48.14;100464.50;4999205;28;1906;-51
2023/12/07 00:41:19;;;;;;;;;;;;;;;16.62;48.45;100455.63;4994414;28;1064;-51
2023/12/07 00:43:45;;;;;;;;;;;;;;;16.32;47.72;100454.63;4974216;28;1180;-51
2023/12/07 00:46:10;;;;;;;;;;;;;;;17.54;47.84;100458.88;4987430;28;1122;-46
2023/12/07 00:48:36;;;;;;;;;;;;;;;16.72;48.30;100455.56;4993755;28;1100;-47
2023/12/07 00:51:02;;;;;;;;;;;;;;;16.42;47.73;100454.59;4993546;28;1208;-49
2023/12/07 00:53:28;;;;;;;;;;;;;;;17.38;48.47;100455.47;4991647;28;884;-48
2023/12/07 00:55:53;;;;;;;;;;;;;;;16.69;48.49;100452.53;4993424;28;1187;-47
2023/12/07 00:58:19;;;;;;;;;;;;;;;16.47;48.63;100452.94;4987996;28;1243;-48
2023/12/07 01:00:45;;;;;;;;;;;;;;;17.04;48.78;100442.47;4986587;28;1984;-48
2023/12/07 01:03:10;;;;;;;;;;;;;;;16.64;48.23;100447.09;4980235;28;1192;-46
2023/12/07 01:05:36;;;;;;;;;;;;;;;17.55;48.09;100450.34;4984715;28;1136;-49
2023/12/07 01:08:01;;;;;;;;;;;;;;;17.03;48.46;100449.91;4999344;28;1067;-46
2023/12/07 01:10:27;;;;;;;;;;;;;;;16.64;47.78;100442.41;4986721;28;1156;-49
2023/12/07 01:12:53;;;;;;;;;;;;;;;16.38;47.15;100439.78;4992922;28;1063;-49
2023/12/07 01:15:18;;;;;;;;;;;;;;;17.03;48.67;100438.13;4993227;28;1188;-49
2023/12/07 01:17:44;;;;;;;;;;;;;;;16.50;48.21;100430.41;4997756;28;845;-47
2023/12/07 01:20:13;;;;;;;;;;;;;;;17.16;48.53;100436.66;4985930;28;1898;-49
2023/12/07 01:22:41;;;;;;;;;;;;;;;16.85;48.81;100423.91;4992471;28;1101;-48
2023/12/07 01:25:07;;;;;;;;;;;;;;;16.58;47.60;100432.56;4993618;28;1081;-47
2023/12/07 01:27:33;;;;;;;;;;;;;;;17.01;48.47;100438.41;4999475;28;1135;-52
2023/12/07 01:29:59;;;;;;;;;;;;;;;16.86;48.64;100439.28;4989592;28;1110;-47
2023/12/07 01:32:24;;;;;;;;;;;;;;;16.51;47.73;100432.03;4998746;28;1067;-46
2023/12/07 01:34:50;;;;;;;;;;;;;;;16.67;48.17;100441.84;4985564;28;1055;-49
2023/12/07 01:37:15;;;;;;;;;;;;;;;17.02;48.22;100444.72;4986417;28;1131;-49
2023/12/07 01:39:41;;;;;;;;;;;;;;;16.54;47.87;100448.78;4985511;28;1914;-48
2023/12/07 01:42:08;;;;;;;;;;;;;;;16.33;47.04;100445.28;4989655;28;1125;-45
2023/12/07 01:44:34;;;;;;;;;;;;;;;16.58;48.13;100443.56;4986336;28;1114;-49
2023/12/07 01:46:59;;;;;;;;;;;;;;;16.67;48.44;100447.34;4999119;28;1126;-49
2023/12/07 01:49:25;;;;;;;;;;;;;;;16.39;47.78;100446.09;4997627;28;1163;-48
2023/12/07 01:51:50;;;;;;;;;;;;;;;16.60;47.93;100444.88;4979361;28;1123;-46
2023/12/07 01:54:16;;;;;;;;;;;;;;;17.15;48.10;100441.31;4989085;28;1095;-50
2023/12/07 01:56:42;;;;;;;;;;;;;;;16.51;48.27;100443.00;4985833;28;1625;-49
2023/12/07 01:59:07;;;;;;;;;;;;;;;16.37;47.15;100443.63;4982886;28;1906;-50
2023/12/07 02:01:33;;;;;;;;;;;;;;;16.50;47.59;100464.16;4979493;28;1215;-47
2023/12/07 02:03:58;;;;;;;;;;;;;;;16.65;48.58;100454.22;4984055;28;1124;-45
2023/12/07 02:06:24;;;;;;;;;;;;;;;16.37;47.56;100459.28;4993894;28;891;-48
2023/12/07 02:08:50;;;;;;;;;;;;;;;17.52;47.37;100461.94;4997868;28;1173;-48
2023/12/07 02:11:16;;;;;;;;;;;;;;;16.65;48.27;100463.28;4998134;28;1067;-50
2023/12/07 02:13:41;;;;;;;;;;;;;;;16.30;47.92;100451.34;4985154;28;1153;-47
2023/12/07 02:16:33;;;;;;;;;;;;;;;16.27;46.61;100459.31;4979195;28;1266;-51
2023/12/07 02:19:16;;;;;;;;;;;;;;;17.20;47.92;100466.00;4970516;28;1910;-46
2023/12/07 02:21:44;;;;;;;;;;;;;;;16.57;47.87;100466.59;4977450;28;1131;-50
2023/12/07 02:24:10;;;;;;;;;;;;;;;16.31;47.51;100458.44;4983883;28;1076;-49
2023/12/07 02:26:51;;;;;;;;;;;;;;;17.04;48.16;100468.06;4984103;28;1071;-50
2023/12/07 02:29:17;;;;;;;;;;;;;;;16.97;48.42;100462.06;4986280;28;1195;-48
2023/12/07 02:31:43;;;;;;;;;;;;;;;18.22;47.12;100462.69;4993722;28;1180;-49
2023/12/07 02:34:09;;;;;;;;;;;;;;;17.28;48.28;100454.41;4988123;28;1246;-51
2023/12/07 02:36:35;;;;;;;;;;;;;;;16.80;47.94;100461.56;4979631;28;1136;-48
2023/12/07 02:39:01;;;;;;;;;;;;;;;16.66;47.06;100461.34;4986570;28;1969;-47
2023/12/07 02:41:27;;;;;;;;;;;;;;;16.41;46.45;100468.56;4996493;28;1096;-47
2023/12/07 02:43:52;;;;;;;;;;;;;;;17.59;48.28;100467.09;4997645;28;1236;-46
2023/12/07 02:46:18;;;;;;;;;;;;;;;16.86;48.53;100465.94;4981719;28;1135;-46
2023/12/07 02:48:44;;;;;;;;;;;;;;;16.51;47.89;100459.47;4978298;28;1109;-50
2023/12/07 02:51:09;;;;;;;;;;;;;;;17.03;48.63;100465.59;4987012;28;1316;-49
2023/12/07 02:53:35;;;;;;;;;;;;;;;16.95;48.79;100467.00;4991128;28;1142;-47
2023/12/07 02:56:00;;;;;;;;;;;;;;;16.46;48.17;100463.06;4984399;28;1168;-50
2023/12/07 02:58:26;;;;;;;;;;;;;;;16.46;46.63;100456.78;4997444;28;1130;-50
2023/12/07 03:00:51;;;;;;;;;;;;;;;17.16;47.99;100461.38;4983950;28;1971;-49
2023/12/07 03:03:17;;;;;;;;;;;;;;;16.55;48.05;100466.91;4990130;28;1168;-47
2023/12/07 03:05:42;;;;;;;;;;;;;;;16.36;47.11;100469.41;4979753;28;1120;-47
2023/12/07 03:08:08;;;;;;;;;;;;;;;16.95;47.85;100461.50;4991738;28;1321;-51
2023/12/07 03:10:34;;;;;;;;;;;;;;;16.91;48.21;100463.16;4965013;28;1338;-48
2023/12/07 03:12:59;;;;;;;;;;;;;;;16.50;47.71;100471.59;4967975;28;1317;-49
2023/12/07 03:15:26;;;;;;;;;;;;;;;17.49;47.77;100467.16;4974718;28;1025;-48
2023/12/07 03:17:51;;;;;;;;;;;;;;;16.65;48.45;100477.00;4992881;28;1081;-47
2023/12/07 03:20:17;;;;;;;;;;;;;;;16.44;47.34;100470.78;4986121;28;1979;-49
2023/12/07 03:22:43;;;;;;;;;;;;;;;16.84;47.89;100476.38;4995493;28;1160;-47
2023/12/07 03:25:08;;;;;;;;;;;;;;;16.98;48.30;100474.66;4984367;28;1427;-49
2023/12/07 03:27:34;;;;;;;;;;;;;;;16.55;47.91;100471.53;4986709;28;1080;-49
2023/12/07 03:29:59;;;;;;;;;;;;;;;16.33;46.97;100474.66;4985288;28;1072;-48
2023/12/07 03:32:25;;;;;;;;;;;;;;;17.53;47.74;100481.97;4977879;28;1041;-46
2023/12/07 03:34:51;;;;;;;;;;;;;;;16.79;48.44;100485.47;4988675;28;1100;-44
2023/12/07 03:37:16;;;;;;;;;;;;;;;16.54;47.06;100473.47;4990504;28;1071;-47
2023/12/07 03:39:42;;;;;;;;;;;;;;;17.32;47.85;100471.16;4990950;28;1909;-46
2023/12/07 03:42:07;;;;;;;;;;;;;;;16.70;47.90;100473.41;4980851;28;1223;-50
2023/12/07 03:44:33;;;;;;;;;;;;;;;17.15;48.44;100476.22;4977726;28;1120;-48
2023/12/07 03:46:58;;;;;;;;;;;;;;;16.91;48.31;100468.66;4977378;28;1100;-49
2023/12/07 03:49:24;;;;;;;;;;;;;;;16.54;47.83;100472.66;4990588;28;1172;-50
2023/12/07 03:51:49;;;;;;;;;;;;;;;17.50;47.87;100475.16;4984717;28;1215;-48
2023/12/07 03:54:15;;;;;;;;;;;;;;;16.70;48.44;100482.44;4993306;28;1112;-49
2023/12/07 03:56:41;;;;;;;;;;;;;;;16.52;47.32;100477.59;4984334;28;1101;-46
2023/12/07 03:59:06;;;;;;;;;;;;;;;17.57;47.71;100478.38;4983667;28;1920;-49
2023/12/07 04:01:32;;;;;;;;;;;;;;;17.03;48.27;100480.13;4982852;28;1408;-50
2023/12/07 04:03:58;;;;;;;;;;;;;;;16.62;47.92;100480.31;4995131;28;1203;-48
2023/12/07 04:06:23;;;;;;;;;;;;;;;16.39;47.19;100468.84;4989151;28;1111;-45
2023/12/07 04:08:49;;;;;;;;;;;;;;;16.67;47.70;100493.19;4978684;28;1126;-50
2023/12/07 04:11:14;;;;;;;;;;;;;;;17.06;48.57;100493.28;4977613;28;1096;-50
2023/12/07 04:13:41;;;;;;;;;;;;;;;16.56;47.81;100489.66;4992263;28;1372;-49
2023/12/07 04:16:06;;;;;;;;;;;;;;;16.45;47.27;100494.34;4979321;28;1400;-47
2023/12/07 04:18:32;;;;;;;;;;;;;;;17.36;47.75;100504.38;4990495;28;1291;-48
2023/12/07 04:20:57;;;;;;;;;;;;;;;16.62;48.06;100504.19;4991914;28;1914;-48
2023/12/07 04:23:23;;;;;;;;;;;;;;;16.39;47.26;100511.94;4982005;28;1079;-48
2023/12/07 04:25:49;;;;;;;;;;;;;;;17.45;47.90;100508.16;4992680;28;879;-49
2023/12/07 04:28:14;;;;;;;;;;;;;;;16.67;48.21;100501.44;4985185;28;2715;-49
2023/12/07 04:30:40;;;;;;;;;;;;;;;16.47;47.05;100505.09;4991267;28;1137;-47
2023/12/07 04:33:05;;;;;;;;;;;;;;;17.35;47.93;100503.56;4998576;28;1140;-43
2023/12/07 04:35:31;;;;;;;;;;;;;;;16.66;48.08;100505.28;4999831;28;1111;-45
2023/12/07 04:37:56;;;;;;;;;;;;;;;17.09;48.24;100503.72;4987221;28;1055;-49
2023/12/07 04:40:24;;;;;;;;;;;;;;;17.31;48.17;100520.91;4994261;28;1969;-47
2023/12/07 04:42:49;;;;;;;;;;;;;;;16.71;47.81;100503.31;4988391;28;1498;-46
2023/12/07 04:45:15;;;;;;;;;;;;;;;16.89;48.48;100509.34;4987649;28;1048;-48
2023/12/07 04:47:41;;;;;;;;;;;;;;;17.02;48.32;100505.94;4999401;28;1123;-47
2023/12/07 04:50:07;;;;;;;;;;;;;;;16.58;47.92;100503.94;4981002;28;1132;-48
2023/12/07 04:52:32;;;;;;;;;;;;;;;16.53;46.70;100513.00;4980888;28;1119;-47
2023/12/07 04:54:58;;;;;;;;;;;;;;;17.02;48.24;100513.38;4992902;28;1084;-48
2023/12/07 04:57:24;;;;;;;;;;;;;;;16.95;48.33;100523.88;4973150;28;1860;-49
2023/12/07 04:59:50;;;;;;;;;;;;;;;16.51;48.03;100506.13;4979888;28;1906;-43
2023/12/07 05:02:16;;;;;;;;;;;;;;;16.37;46.75;100520.47;4977747;28;1184;-46
2023/12/07 05:04:42;;;;;;;;;;;;;;;17.33;47.98;100516.75;4972622;28;1042;-44
2023/12/07 05:07:07;;;;;;;;;;;;;;;16.74;48.37;100513.75;4984343;28;992;-47
2023/12/07 05:09:33;;;;;;;;;;;;;;;16.41;47.93;100505.09;4985423;28;1330;-43
2023/12/07 05:11:58;;;;;;;;;;;;;;;16.30;46.81;100514.44;4989119;28;1144;-48
2023/12/07 05:14:24;;;;;;;;;;;;;;;16.19;46.08;100512.84;4996527;28;1227;-46
2023/12/07 05:16:52;;;;;;;;;;;;;;;16.40;46.98;100511.66;4998987;28;1047;-45
2023/12/07 05:19:22;;;;;;;;;;;;;;;16.73;48.19;100503.88;4993804;28;1977;-46
2023/12/07 05:21:47;;;;;;;;;;;;;;;16.33;47.58;100504.84;4990753;28;1063;-49
2023/12/07 05:24:13;;;;;;;;;;;;;;;17.12;48.10;100507.00;4975470;28;1210;-43
2023/12/07 05:26:40;;;;;;;;;;;;;;;16.70;48.63;100509.91;4988020;28;1299;-46
2023/12/07 05:29:06;;;;;;;;;;;;;;;17.29;47.68;100504.69;4985702;28;2331;-49
2023/12/07 05:31:32;;;;;;;;;;;;;;;16.68;49.07;100506.63;4978612;28;1294;-49
2023/12/07 05:33:57;;;;;;;;;;;;;;;16.41;49.83;100498.75;4984183;28;1150;-47
2023/12/07 05:36:23;;;;;;;;;;;;;;;16.17;50.28;100499.41;4994046;28;1238;-49
2023/12/07 05:38:48;;;;;;;;;;;;;;;16.03;50.29;100501.88;4998667;28;1532;-50
2023/12/07 05:41:14;;;;;;;;;;;;;;;15.90;50.69;100505.19;4985589;28;1977;-48
2023/12/07 05:43:42;;;;;;;;;;;;;;;16.31;49.88;100509.78;4996023;28;1232;-49
2023/12/07 05:46:08;;;;;;;;;;;;;;;16.87;48.27;100506.84;4985881;28;1136;-53
2023/12/07 05:48:33;;;;;;;;;;;;;;;16.27;49.84;100512.28;4998474;28;1082;-50
2023/12/07 05:50:59;;;;;;;;;;;;;;;16.16;50.50;100513.34;4985828;28;1180;-48
2023/12/07 05:53:24;;;;;;;;;;;;;;;17.15;47.87;100501.75;4979097;28;1139;-51
2023/12/07 05:55:50;;;;;;;;;;;;;;;16.41;49.50;100510.56;4982897;28;1192;-51
2023/12/07 05:58:17;;;;;;;;;;;;;;;16.07;50.33;100515.84;4996059;28;2394;-50
2023/12/07 06:00:43;;;;;;;;;;;;;;;17.17;47.72;100523.47;4998019;28;1977;-49
2023/12/07 06:03:09;;;;;;;;;;;;;;;16.71;48.96;100535.47;4998006;28;1102;-50
2023/12/07 06:05:37;;;;;;;;;;;;;;;16.21;50.11;100529.81;4985102;28;1040;-56
2023/12/07 06:08:04;;;;;;;;;;;;;;;15.99;50.78;100533.69;4995393;28;978;-52
2023/12/07 06:10:29;;;;;;;;;;;;;;;16.33;50.06;100530.34;4978419;28;1373;-47
2023/12/07 06:12:56;;;;;;;;;;;;;;;17.11;47.77;100539.16;4990312;28;1132;-51
2023/12/07 06:15:22;;;;;;;;;;;;;;;16.33;49.68;100546.81;4969604;28;1092;-52
2023/12/07 06:17:48;;;;;;;;;;;;;;;16.11;50.35;100541.63;4997846;28;1021;-50
2023/12/07 06:20:13;;;;;;;;;;;;;;;17.40;47.45;100561.25;4992176;28;1976;-49
2023/12/07 06:22:39;;;;;;;;;;;;;;;16.54;49.56;100549.53;4986494;28;1211;-50
2023/12/07 06:25:05;;;;;;;;;;;;;;;16.18;50.28;100552.31;4997257;28;1052;-49
2023/12/07 06:27:30;;;;;;;;;;;;;;;17.32;47.60;100550.88;4995217;28;2350;-47
2023/12/07 06:29:56;;;;;;;;;;;;;;;16.74;48.95;100552.19;4979691;28;1016;-47
2023/12/07 06:32:21;;;;;;;;;;;;;;;16.30;50.11;100563.00;4994224;28;886;-47
2023/12/07 06:34:47;;;;;;;;;;;;;;;16.04;50.50;100558.34;4984425;28;1027;-52
2023/12/07 06:37:13;;;;;;;;;;;;;;;17.18;48.05;100555.31;4982934;28;1317;-50
2023/12/07 06:39:38;;;;;;;;;;;;;;;17.06;48.36;100564.72;4964161;28;1963;-51
2023/12/07 06:42:04;;;;;;;;;;;;;;;16.42;49.82;100561.63;4974221;28;1004;-49
2023/12/07 06:44:30;;;;;;;;;;;;;;;16.13;50.73;100563.28;4981777;28;905;-49
2023/12/07 06:46:55;;;;;;;;;;;;;;;17.12;48.15;100561.97;4997036;28;1088;-51
2023/12/07 06:49:21;;;;;;;;;;;;;;;17.04;48.10;100561.44;4997096;28;1021;-50
2023/12/07 06:51:47;;;;;;;;;;;;;;;16.43;49.90;100563.25;4990473;28;1091;-52
2023/12/07 06:54:13;;;;;;;;;;;;;;;16.16;50.51;100581.94;4990424;28;1017;-50
2023/12/07 06:56:39;;;;;;;;;;;;;;;17.41;47.58;100564.81;4977556;28;1200;-48
2023/12/07 06:59:04;;;;;;;;;;;;;;;16.58;49.38;100559.66;4981354;28;1918;-50
2023/12/07 07:01:30;;;;;;;;;;;;;;;16.25;50.35;100591.28;4989181;28;897;-49
2023/12/07 07:03:56;;;;;;;;;;;;;;;16.31;50.52;100587.41;4996825;28;1021;-51
2023/12/07 07:06:22;;;;;;;;;;;;;;;17.19;47.78;100587.19;4984762;28;1044;-53
2023/12/07 07:08:49;;;;;;;;;;;;;;;16.40;49.94;100588.50;4990191;28;1044;-51
2023/12/07 07:11:14;;;;;;;;;;;;;;;16.07;50.65;100596.25;4977889;28;1025;-51
2023/12/07 07:13:40;;;;;;;;;;;;;;;17.08;48.32;100600.16;4994867;28;1144;-48
2023/12/07 07:16:07;;;;;;;;;;;;;;;17.08;48.15;100601.00;4971330;28;1203;-48
2023/12/07 07:18:33;;;;;;;;;;;;;;;16.39;49.89;100619.78;4968511;28;1145;-49
2023/12/07 07:20:58;;;;;;;;;;;;;;;16.14;50.54;100611.59;4977292;28;1914;-50
2023/12/07 07:23:24;;;;;;;;;;;;;;;16.56;49.60;100604.94;4983753;28;1178;-47
2023/12/07 07:25:50;;;;;;;;;;;;;;;17.38;47.47;100610.19;4979333;28;1022;-48
2023/12/07 07:28:15;;;;;;;;;;;;;;;16.51;49.68;100607.69;4972549;28;2323;-47
2023/12/07 07:30:41;;;;;;;;;;;;;;;16.16;50.43;100607.47;4971282;28;1137;-48
2023/12/07 07:33:07;;;;;;;;;;;;;;;16.03;51.23;100614.34;4992899;28;1306;-50
2023/12/07 07:35:33;;;;;;;;;;;;;;;17.43;47.46;100615.66;4992175;28;1127;-45
2023/12/07 07:37:58;;;;;;;;;;;;;;;16.89;48.84;100619.19;4989759;28;1129;-51
2023/12/07 07:40:24;;;;;;;;;;;;;;;16.36;50.27;100612.13;4977165;28;1894;-51
2023/12/07 07:42:50;;;;;;;;;;;;;;;16.07;50.61;100614.59;4977099;28;1112;-49
2023/12/07 07:45:16;;;;;;;;;;;;;;;16.74;49.21;100620.81;4982261;28;1124;-51
2023/12/07 07:47:41;;;;;;;;;;;;;;;16.88;48.88;100614.75;4973037;28;834;-50
2023/12/07 07:50:07;;;;;;;;;;;;;;;16.31;50.35;100609.38;4996103;28;1065;-52
2023/12/07 07:52:33;;;;;;;;;;;;;;;16.11;51.11;100614.88;4976561;28;967;-49
2023/12/07 07:55:00;;;;;;;;;;;;;;;16.73;49.97;100615.63;4968488;28;1021;-48
2023/12/07 07:57:25;;;;;;;;;;;;;;;17.33;48.05;100612.13;4976599;28;2366;-49
2023/12/07 07:59:51;;;;;;;;;;;;;;;16.50;50.05;100623.34;4983731;28;1890;-50
2023/12/07 08:02:16;;;;;;;;;;;;;;;16.17;50.86;100616.50;4973290;28;1112;-49
2023/12/07 08:04:42;;;;;;;;;;;;;;;17.05;49.01;100634.50;4980996;28;927;-52
2023/12/07 08:07:08;;;;;;;;;;;;;;;16.92;49.01;100635.91;4976990;28;1171;-51
2023/12/07 08:09:33;;;;;;;;;;;;;;;16.37;50.44;100634.91;4994429;28;945;-49
2023/12/07 08:11:59;;;;;;;;;;;;;;;16.06;51.29;100652.19;4977837;28;1069;-50
2023/12/07 08:14:24;;;;;;;;;;;;;;;17.08;48.95;100641.34;4977480;28;959;-51
2023/12/07 08:16:50;;;;;;;;;;;;;;;16.82;49.21;100638.66;4988527;28;1080;-48
2023/12/07 08:19:15;;;;;;;;;;;;;;;16.24;50.65;100642.59;4981708;28;1910;-51
2023/12/07 08:21:41;;;;;;;;;;;;;;;16.05;51.37;100644.22;4992750;28;874;-52
2023/12/07 08:24:07;;;;;;;;;;;;;;;16.40;50.49;100642.59;4979212;28;1094;-49
2023/12/07 08:26:32;;;;;;;;;;;;;;;17.52;47.58;100637.88;4975026;28;1272;-50
2023/12/07 08:28:58;;;;;;;;;;;;;;;16.54;50.11;100648.34;4974997;28;2313;-52
2023/12/07 08:31:24;;;;;;;;;;;;;;;16.21;50.57;100636.81;4971555;28;1138;-49
2023/12/07 08:33:52;;;;;;;;;;;;;;;17.22;48.12;100638.84;4973527;28;993;-47
2023/12/07 08:36:18;;;;;;;;;;;;;;;16.45;50.30;100655.47;4976162;28;930;-48
2023/12/07 08:38:43;;;;;;;;;;;;;;;16.12;50.80;100638.44;4987940;28;1176;-50
2023/12/07 08:41:09;;;;;;;;;;;;;;;16.41;50.56;100641.47;4969590;28;1973;-51
2023/12/07 08:43:35;;;;;;;;;;;;;;;17.19;48.17;100631.16;4976366;28;1145;-51
2023/12/07 08:46:00;;;;;;;;;;;;;;;16.42;50.23;100652.19;4994860;28;990;-46
2023/12/07 08:48:26;;;;;;;;;;;;;;;16.13;50.77;100634.63;4988664;28;1042;-49
2023/12/07 08:50:51;;;;;;;;;;;;;;;15.90;51.69;100653.25;4973290;28;1241;-48
2023/12/07 08:53:17;;;;;;;;;;;;;;;17.25;48.45;100632.75;4981678;28;908;-48
2023/12/07 08:55:43;;;;;;;;;;;;;;;16.79;49.46;100646.63;4994509;28;1098;-48
2023/12/07 08:58:10;;;;;;;;;;;;;;;16.28;50.54;100648.34;4987177;28;1902;-43
2023/12/07 09:00:35;;;;;;;;;;;;;;;16.00;51.17;100658.75;4978624;28;1959;-51
2023/12/07 09:03:02;;;;;;;;;;;;;;;16.17;50.93;100653.03;4998770;28;1087;-51
2023/12/07 09:05:27;;;;;;;;;;;;;;;17.41;47.77;100636.28;4992496;28;1000;-43
2023/12/07 09:07:53;;;;;;;;;;;;;;;16.54;49.88;100651.09;4978467;28;1108;-42
2023/12/07 09:10:19;;;;;;;;;;;;;;;16.15;50.72;100643.41;4982256;28;1191;-46
2023/12/07 09:12:44;;;;;;;;;;;;;;;16.89;49.20;100657.63;4984322;28;1113;-46
2023/12/07 09:15:10;;;;;;;;;;;;;;;17.14;48.31;100648.50;4990189;28;1207;-53
2023/12/07 09:17:37;;;;;;;;;;;;;;;16.44;50.19;100651.91;4992667;28;1045;-50
2023/12/07 09:20:04;;;;;;;;;;;;;;;16.13;50.82;100662.03;4988842;28;1971;-51
2023/12/07 09:22:29;;;;;;;;;;;;;;;15.90;51.31;100642.28;4994693;28;861;-48
2023/12/07 09:24:55;;;;;;;;;;;;;;;16.64;49.75;100659.28;4997573;28;980;-51
2023/12/07 09:27:21;;;;;;;;;;;;;;;17.22;47.94;100641.56;4993814;28;2319;-51
2023/12/07 09:29:47;;;;;;;;;;;;;;;16.46;49.96;100646.16;4986097;28;1077;-48
2023/12/07 09:32:12;;;;;;;;;;;;;;;16.14;50.83;100659.03;4984513;28;1116;-52
2023/12/07 09:34:39;;;;;;;;;;;;;;;16.22;50.68;100638.47;4987745;28;910;-49
2023/12/07 09:37:05;;;;;;;;;;;;;;;17.45;47.52;100646.41;4987670;28;1125;-52
2023/12/07 09:39:31;;;;;;;;;;;;;;;16.53;49.84;100639.25;4983859;28;1965;-49
2023/12/07 09:41:56;;;;;;;;;;;;;;;16.15;50.87;100638.75;4991925;28;1101;-50
2023/12/07 09:44:22;;;;;;;;;;;;;;;16.36;50.39;100645.03;4981980;28;1009;-49
2023/12/07 09:46:47;;;;;;;;;;;;;;;17.00;48.57;100640.03;4990241;28;1124;-51
2023/12/07 09:49:13;;;;;;;;;;;;;;;16.28;50.51;100642.84;4995192;28;1281;-49
2023/12/07 09:51:38;;;;;;;;;;;;;;;17.04;48.70;100645.75;4971750;28;1088;-48
2023/12/07 09:54:05;;;;;;;;;;;;;;;16.82;48.97;100637.84;4995642;28;1273;-51
2023/12/07 09:56:30;;;;;;;;;;;;;;;16.27;50.72;100645.88;4983285;28;1128;-48
2023/12/07 09:58:56;;;;;;;;;;;;;;;16.03;50.83;100643.66;4990130;28;1817;-51
2023/12/07 10:01:21;;;;;;;;;;;;;;;16.73;49.40;100645.81;4996029;28;1997;-50
2023/12/07 10:03:48;;;;;;;;;;;;;;;16.84;48.89;100632.91;4968664;28;1182;-47
2023/12/07 10:06:13;;;;;;;;;;;;;;;16.22;50.40;100633.78;4977551;28;1201;-49
2023/12/07 10:08:39;;;;;;;;;;;;;;;15.96;50.97;100635.69;4971691;28;1072;-49
2023/12/07 10:11:08;;;;;;;;;;;;;;;17.23;48.23;100630.31;4994487;28;861;-50
2023/12/07 10:13:34;;;;;;;;;;;;;;;16.49;49.94;100637.34;4977349;28;1392;-44
2023/12/07 10:16:08;;;;;;;;;;;;;;;16.07;50.84;100637.38;4981806;28;1174;-45
2023/12/07 10:18:33;;;;;;;;;;;;;;;16.43;50.17;100640.09;4971285;28;1215;-48
2023/12/07 10:20:59;;;;;;;;;;;;;;;17.16;48.28;100635.28;4975534;28;1982;-49
2023/12/07 10:23:26;;;;;;;;;;;;;;;16.39;49.99;100649.16;4984368;28;1285;-48
2023/12/07 10:25:51;;;;;;;;;;;;;;;16.07;50.76;100637.38;4980294;28;1287;-50
2023/12/07 10:28:18;;;;;;;;;;;;;;;16.15;50.82;100636.00;4990740;28;1910;-52
2023/12/07 10:30:44;;;;;;;;;;;;;;;17.39;47.73;100643.97;4985056;28;856;-48
2023/12/07 10:33:09;;;;;;;;;;;;;;;16.46;49.81;100632.41;4977757;28;1144;-51
2023/12/07 10:35:41;;;;;;;;;;;;;;;16.21;50.65;100626.66;4985542;28;1177;-51
2023/12/07 10:38:07;;;;;;;;;;;;;;;17.40;47.59;100624.47;4966657;28;1266;-53
2023/12/07 10:40:33;;;;;;;;;;;;;;;16.45;49.80;100626.09;4996310;28;1987;-50
2023/12/07 10:42:59;;;;;;;;;;;;;;;16.14;50.72;100633.53;4993070;28;1260;-54
2023/12/07 10:45:25;;;;;;;;;;;;;;;16.70;49.57;100627.97;4989748;28;1108;-53
2023/12/07 10:47:50;;;;;;;;;;;;;;;16.92;48.45;100624.94;4987361;28;1166;-51
2023/12/07 10:50:16;;;;;;;;;;;;;;;16.31;50.14;100636.00;4988697;28;1124;-50
2023/12/07 10:52:45;;;;;;;;;;;;;;;16.23;50.50;100637.38;4981819;28;1097;-47
2023/12/07 10:55:18;;;;;;;;;;;;;;;17.34;47.46;100642.09;4981708;28;1080;-48
2023/12/07 10:57:44;;;;;;;;;;;;;;;16.49;49.88;100645.59;4993927;28;1864;-48
2023/12/07 11:00:10;;;;;;;;;;;;;;;16.10;50.62;100646.16;4993754;28;1906;-47
2023/12/07 11:02:36;;;;;;;;;;;;;;;16.77;49.29;100657.88;4968936;28;1445;-49
2023/12/07 11:05:01;;;;;;;;;;;;;;;17.25;47.61;100650.09;4984980;28;977;-48
2023/12/07 11:07:28;;;;;;;;;;;;;;;16.45;49.68;100648.03;5000717;28;1059;-50
2023/12/07 11:10:05;;;;;;;;;;;;;;;16.08;50.83;100655.47;4973326;28;1401;-45
2023/12/07 11:12:35;;;;;;;;;;;;;;;17.03;48.69;100661.44;4972243;28;1087;-48
2023/12/07 11:15:01;;;;;;;;;;;;;;;16.77;48.87;100661.47;4979825;28;1025;-45
2023/12/07 11:17:27;;;;;;;;;;;;;;;16.26;50.20;100669.75;4979262;28;1258;-48
2023/12/07 11:19:52;;;;;;;;;;;;;;;15.95;50.86;100666.13;4975228;28;1987;-47
2023/12/07 11:22:18;;;;;;;;;;;;;;;16.97;48.82;100670.81;4974774;28;1361;-47
2023/12/07 11:24:58;;;;;;;;;;;;;;;17.06;48.26;100669.09;4992161;28;1178;-49
2023/12/07 11:27:24;;;;;;;;;;;;;;;16.33;50.01;100683.19;4978756;28;2589;-47
2023/12/07 11:29:49;;;;;;;;;;;;;;;15.99;50.76;100676.31;4985502;28;1277;-46
2023/12/07 11:32:15;;;;;;;;;;;;;;;17.16;48.09;100675.69;4981334;28;1134;-51
2023/12/07 11:34:42;;;;;;;;;;;;;;;16.55;49.47;100689.22;4981369;28;936;-53
2023/12/07 11:37:08;;;;;;;;;;;;;;;16.09;50.57;100683.72;4982874;28;1064;-48
2023/12/07 11:39:36;;;;;;;;;;;;;;;15.90;50.95;100686.97;4981874;28;1910;-51
2023/12/07 11:42:20;;;;;;;;;;;;;;;17.10;48.30;100688.63;4981936;28;1154;-48
2023/12/07 11:44:49;;;;;;;;;;;;;;;16.53;49.37;100687.84;4984874;28;1125;-51
2023/12/07 11:47:16;;;;;;;;;;;;;;;16.07;50.59;100702.38;4986306;28;1143;-49
2023/12/07 11:49:43;;;;;;;;;;;;;;;16.41;49.93;100686.22;4983580;28;1152;-50
2023/12/07 11:52:12;;;;;;;;;;;;;;;17.61;46.87;100679.34;4994738;28;1123;-50
2023/12/07 11:54:38;;;;;;;;;;;;;;;16.68;49.08;100684.28;4983696;28;1144;-50
2023/12/07 11:57:04;;;;;;;;;;;;;;;16.19;50.23;100682.91;4979080;28;1156;-50
2023/12/07 11:59:30;;;;;;;;;;;;;;;15.94;50.78;100692.75;4983825;28;2592;-50
2023/12/07 12:01:55;;;;;;;;;;;;;;;16.54;49.54;100681.28;4991990;28;1092;-49
2023/12/07 12:04:21;;;;;;;;;;;;;;;17.12;47.66;100669.09;4980578;28;1463;-51
2023/12/07 12:06:47;;;;;;;;;;;;;;;16.37;49.74;100687.84;4970607;28;1169;-54
2023/12/07 12:09:18;;;;;;;;;;;;;;;16.03;50.68;100685.66;4964053;28;1106;-49
2023/12/07 12:11:46;;;;;;;;;;;;;;;16.02;50.80;100689.47;4962253;28;1152;-47
2023/12/07 12:14:13;;;;;;;;;;;;;;;17.38;47.35;100687.13;4994540;28;1355;-46
2023/12/07 12:16:39;;;;;;;;;;;;;;;16.46;49.42;100687.31;4974954;28;1322;-49
2023/12/07 12:19:04;;;;;;;;;;;;;;;16.07;50.68;100675.78;4987302;28;1061;-51
2023/12/07 12:21:33;;;;;;;;;;;;;;;17.35;47.58;100682.22;4983809;28;1906;-51
2023/12/07 12:23:59;;;;;;;;;;;;;;;16.59;49.15;100687.59;4981691;28;1365;-52
2023/12/07 12:26:25;;;;;;;;;;;;;;;16.17;50.42;100691.44;4985778;28;1367;-47
2023/12/07 12:28:52;;;;;;;;;;;;;;;16.74;48.98;100689.47;4984286;28;2516;-49
2023/12/07 12:31:18;;;;;;;;;;;;;;;16.80;48.57;100681.22;4983081;28;1341;-48
2023/12/07 12:33:43;;;;;;;;;;;;;;;16.27;50.09;100689.78;4975331;28;1074;-52
2023/12/07 12:36:10;;;;;;;;;;;;;;;16.88;48.94;100694.41;4985695;28;1486;-49
2023/12/07 12:38:36;;;;;;;;;;;;;;;16.87;48.34;100684.50;5001452;28;1168;-50
2023/12/07 12:41:03;;;;;;;;;;;;;;;16.25;50.02;100687.31;4988210;28;1993;-52